sensor_id;sensor_type;location;lat;lon;timestamp;pressure;altitude;pressure_sealevel;temperature;humidity
58644;BME280;44411;49.994;8.660;2023-03-03T00:00:38;100453.72;;;1.39;63.27
58644;BME280;44411;49.994;8.660;2023-03-03T00:03:05;100440.53;;;1.30;63.39
58644;BME280;44411;49.994;8.660;2023-03-03T00:05:32;100443.00;;;1.32;63.81
58644;BME280;44411;49.994;8.660;2023-03-03T00:07:58;100450.47;;;1.30;64.12
58644;BME280;44411;49.994;8.660;2023-03-03T00:10:24;100449.16;;;1.39;63.48
58644;BME280;44411;49.994;8.660;2023-03-03T00:12:50;100438.91;;;1.29;64.30
58644;BME280;44411;49.994;8.660;2023-03-03T00:15:20;100443.78;;;1.39;64.25
58644;BME280;44411;49.994;8.660;2023-03-03T00:17:46;100446.31;;;1.34;63.86
58644;BME280;44411;49.994;8.660;2023-03-03T00:20:38;100459.53;;;1.36;64.42
58644;BME280;44411;49.994;8.660;2023-03-03T00:25:35;100464.94;;;1.29;65.15
58644;BME280;44411;49.994;8.660;2023-03-03T00:28:17;100463.31;;;1.28;65.31
58644;BME280;44411;49.994;8.660;2023-03-03T00:30:44;100459.66;;;1.22;66.03
58644;BME280;44411;49.994;8.660;2023-03-03T00:33:33;100468.97;;;1.20;65.57
58644;BME280;44411;49.994;8.660;2023-03-03T00:38:47;100480.00;;;1.11;65.67
58644;BME280;44411;49.994;8.660;2023-03-03T00:41:22;100482.09;;;1.09;66.23
58644;BME280;44411;49.994;8.660;2023-03-03T00:43:48;100479.41;;;1.09;66.35
58644;BME280;44411;49.994;8.660;2023-03-03T00:46:18;100482.09;;;1.09;66.58
58644;BME280;44411;49.994;8.660;2023-03-03T00:48:44;100484.78;;;1.09;66.66
58644;BME280;44411;49.994;8.660;2023-03-03T00:51:24;100493.69;;;1.03;66.56
58644;BME280;44411;49.994;8.660;2023-03-03T00:53:50;100487.09;;;0.99;67.32
58644;BME280;44411;49.994;8.660;2023-03-03T00:56:16;100490.00;;;0.98;67.19
58644;BME280;44411;49.994;8.660;2023-03-03T00:58:41;100486.31;;;0.92;67.92
58644;BME280;44411;49.994;8.660;2023-03-03T01:01:08;100488.00;;;0.93;67.93
58644;BME280;44411;49.994;8.660;2023-03-03T01:03:33;100480.00;;;0.80;67.20
58644;BME280;44411;49.994;8.660;2023-03-03T01:05:59;100496.28;;;0.85;68.17
58644;BME280;44411;49.994;8.660;2023-03-03T01:08:24;100491.81;;;0.79;68.01
58644;BME280;44411;49.994;8.660;2023-03-03T01:10:52;100489.28;;;0.84;68.81
58644;BME280;44411;49.994;8.660;2023-03-03T01:13:19;100494.22;;;0.87;68.91
58644;BME280;44411;49.994;8.660;2023-03-03T01:15:46;100491.59;;;0.80;68.25
58644;BME280;44411;49.994;8.660;2023-03-03T01:18:12;100491.00;;;0.71;68.76
58644;BME280;44411;49.994;8.660;2023-03-03T01:20:38;100489.56;;;0.69;69.41
58644;BME280;44411;49.994;8.660;2023-03-03T01:23:04;100478.66;;;0.64;69.44
58644;BME280;44411;49.994;8.660;2023-03-03T01:25:30;100481.38;;;0.57;69.70
58644;BME280;44411;49.994;8.660;2023-03-03T01:27:56;100479.94;;;0.54;69.79
58644;BME280;44411;49.994;8.660;2023-03-03T01:30:21;100476.84;;;0.51;70.48
58644;BME280;44411;49.994;8.660;2023-03-03T01:32:47;100482.06;;;0.46;70.95
58644;BME280;44411;49.994;8.660;2023-03-03T01:35:12;100477.16;;;0.36;70.49
58644;BME280;44411;49.994;8.660;2023-03-03T01:37:38;100484.81;;;0.32;70.77
58644;BME280;44411;49.994;8.660;2023-03-03T01:40:06;100488.72;;;0.36;70.98
58644;BME280;44411;49.994;8.660;2023-03-03T01:42:32;100490.97;;;0.40;71.36
58644;BME280;44411;49.994;8.660;2023-03-03T01:45:22;100483.34;;;0.36;71.61
58644;BME280;44411;49.994;8.660;2023-03-03T01:48:00;100482.31;;;0.31;70.83
58644;BME280;44411;49.994;8.660;2023-03-03T01:50:33;100480.09;;;0.21;71.94
58644;BME280;44411;49.994;8.660;2023-03-03T01:53:01;100471.88;;;0.16;72.50
58644;BME280;44411;49.994;8.660;2023-03-03T01:55:33;100468.38;;;0.09;71.52
58644;BME280;44411;49.994;8.660;2023-03-03T01:58:27;100467.16;;;0.11;72.69
58644;BME280;44411;49.994;8.660;2023-03-03T02:00:57;100471.94;;;0.03;71.65
58644;BME280;44411;49.994;8.660;2023-03-03T02:03:24;100471.53;;;-0.01;72.91
58644;BME280;44411;49.994;8.660;2023-03-03T02:05:52;100472.34;;;-0.01;73.79
58644;BME280;44411;49.994;8.660;2023-03-03T02:08:21;100479.78;;;-0.03;73.74
58644;BME280;44411;49.994;8.660;2023-03-03T02:10:50;100474.22;;;-0.08;73.80
58644;BME280;44411;49.994;8.660;2023-03-03T02:13:15;100472.19;;;-0.12;74.15
58644;BME280;44411;49.994;8.660;2023-03-03T02:15:41;100471.53;;;-0.08;74.55
58644;BME280;44411;49.994;8.660;2023-03-03T02:18:18;100467.44;;;-0.10;74.73
58644;BME280;44411;49.994;8.660;2023-03-03T02:20:57;100464.09;;;-0.06;73.79
58644;BME280;44411;49.994;8.660;2023-03-03T02:26:24;100466.63;;;-0.11;74.99
58644;BME280;44411;49.994;8.660;2023-03-03T02:28:50;100472.38;;;-0.14;74.88
58644;BME280;44411;49.994;8.660;2023-03-03T02:31:19;100472.41;;;-0.21;74.92
58644;BME280;44411;49.994;8.660;2023-03-03T02:33:48;100473.66;;;-0.23;75.52
58644;BME280;44411;49.994;8.660;2023-03-03T02:36:17;100465.00;;;-0.25;73.96
58644;BME280;44411;49.994;8.660;2023-03-03T02:38:50;100478.97;;;-0.16;74.87
58644;BME280;44411;49.994;8.660;2023-03-03T02:44:18;100483.13;;;-0.14;75.85
58644;BME280;44411;49.994;8.660;2023-03-03T02:46:46;100475.69;;;-0.12;76.21
58644;BME280;44411;49.994;8.660;2023-03-03T02:49:14;100481.47;;;-0.15;75.90
58644;BME280;44411;49.994;8.660;2023-03-03T06:03:03;100545.34;;;-1.32;84.37
58644;BME280;44411;49.994;8.660;2023-03-03T06:05:28;100541.00;;;-1.33;85.14
58644;BME280;44411;49.994;8.660;2023-03-03T06:07:53;100550.69;;;-1.32;84.79
58644;BME280;44411;49.994;8.660;2023-03-03T06:10:19;100564.88;;;-1.31;85.40
58644;BME280;44411;49.994;8.660;2023-03-03T06:12:44;100565.50;;;-1.29;85.61
58644;BME280;44411;49.994;8.660;2023-03-03T06:15:10;100559.34;;;-1.30;85.36
58644;BME280;44411;49.994;8.660;2023-03-03T06:17:35;100560.78;;;-1.34;85.04
58644;BME280;44411;49.994;8.660;2023-03-03T06:20:00;100558.88;;;-1.40;85.32
58644;BME280;44411;49.994;8.660;2023-03-03T06:22:26;100567.56;;;-1.38;85.46
58644;BME280;44411;49.994;8.660;2023-03-03T06:24:57;100576.22;;;-1.36;85.85
58644;BME280;44411;49.994;8.660;2023-03-03T06:27:22;100581.56;;;-1.36;86.06
58644;BME280;44411;49.994;8.660;2023-03-03T06:29:48;100577.66;;;-1.33;85.79
58644;BME280;44411;49.994;8.660;2023-03-03T06:32:13;100596.84;;;-1.23;86.15
58644;BME280;44411;49.994;8.660;2023-03-03T06:34:38;100596.00;;;-1.24;86.16
58644;BME280;44411;49.994;8.660;2023-03-03T06:37:04;100599.94;;;-1.20;86.23
58644;BME280;44411;49.994;8.660;2023-03-03T06:39:29;100592.34;;;-1.16;85.62
58644;BME280;44411;49.994;8.660;2023-03-03T06:41:54;100598.56;;;-1.09;86.21
58644;BME280;44411;49.994;8.660;2023-03-03T06:44:20;100593.63;;;-1.05;86.10
58644;BME280;44411;49.994;8.660;2023-03-03T06:46:45;100596.91;;;-1.03;85.75
58644;BME280;44411;49.994;8.660;2023-03-03T06:49:10;100604.56;;;-0.93;85.95
58644;BME280;44411;49.994;8.660;2023-03-03T06:51:38;100609.31;;;-0.89;85.91
58644;BME280;44411;49.994;8.660;2023-03-03T06:54:12;100606.22;;;-0.86;85.92
58644;BME280;44411;49.994;8.660;2023-03-03T06:56:38;100618.81;;;-0.73;85.87
58644;BME280;44411;49.994;8.660;2023-03-03T06:59:13;100619.22;;;-0.69;85.35
58644;BME280;44411;49.994;8.660;2023-03-03T07:01:39;100622.16;;;-0.57;85.50
58644;BME280;44411;49.994;8.660;2023-03-03T07:04:26;100622.38;;;-0.52;84.98
58644;BME280;44411;49.994;8.660;2023-03-03T07:07:19;100621.72;;;-0.48;85.20
58644;BME280;44411;49.994;8.660;2023-03-03T07:09:48;100632.47;;;-0.48;84.94
58644;BME280;44411;49.994;8.660;2023-03-03T07:12:25;100630.00;;;-0.43;84.29
58644;BME280;44411;49.994;8.660;2023-03-03T07:14:55;100631.44;;;-0.47;84.88
58644;BME280;44411;49.994;8.660;2023-03-03T07:17:24;100637.41;;;-0.31;84.14
58644;BME280;44411;49.994;8.660;2023-03-03T07:19:50;100644.44;;;-0.30;84.37
58644;BME280;44411;49.994;8.660;2023-03-03T07:22:29;100648.75;;;-0.29;84.26
58644;BME280;44411;49.994;8.660;2023-03-03T07:24:59;100647.34;;;-0.25;84.51
58644;BME280;44411;49.994;8.660;2023-03-03T07:27:42;100654.16;;;-0.16;83.55
58644;BME280;44411;49.994;8.660;2023-03-03T07:31:14;100655.78;;;-0.22;83.63
58644;BME280;44411;49.994;8.660;2023-03-03T07:33:48;100654.34;;;-0.11;83.17
58644;BME280;44411;49.994;8.660;2023-03-03T07:45:52;100669.41;;;0.17;81.83
58644;BME280;44411;49.994;8.660;2023-03-03T07:48:27;100681.13;;;0.36;81.20
58644;BME280;44411;49.994;8.660;2023-03-03T07:51:10;100675.13;;;0.47;81.02
58644;BME280;44411;49.994;8.660;2023-03-03T07:53:35;100673.03;;;0.56;80.50
58644;BME280;44411;49.994;8.660;2023-03-03T07:56:05;100676.53;;;0.76;80.14
58644;BME280;44411;49.994;8.660;2023-03-03T08:01:52;100689.34;;;0.61;79.80
58644;BME280;44411;49.994;8.660;2023-03-03T08:04:20;100696.38;;;0.62;79.27
58644;BME280;44411;49.994;8.660;2023-03-03T08:06:52;100703.19;;;0.71;79.06
58644;BME280;44411;49.994;8.660;2023-03-03T08:14:33;100700.84;;;0.88;78.70
58644;BME280;44411;49.994;8.660;2023-03-03T08:16:59;100689.31;;;0.74;78.73
58644;BME280;44411;49.994;8.660;2023-03-03T08:19:25;100688.22;;;0.95;78.45
58644;BME280;44411;49.994;8.660;2023-03-03T08:21:55;100680.16;;;0.89;78.82
58644;BME280;44411;49.994;8.660;2023-03-03T08:24:24;100698.38;;;0.87;78.27
58644;BME280;44411;49.994;8.660;2023-03-03T08:26:49;100703.25;;;1.10;78.54
58644;BME280;44411;49.994;8.660;2023-03-03T08:29:14;100693.50;;;1.15;78.31
58644;BME280;44411;49.994;8.660;2023-03-03T08:31:40;100695.72;;;1.25;77.22
58644;BME280;44411;49.994;8.660;2023-03-03T08:34:05;100699.00;;;1.34;77.62
58644;BME280;44411;49.994;8.660;2023-03-03T08:36:31;100702.06;;;1.44;76.92
58644;BME280;44411;49.994;8.660;2023-03-03T08:38:56;100698.44;;;1.64;76.34
58644;BME280;44411;49.994;8.660;2023-03-03T08:41:22;100713.69;;;1.70;76.15
58644;BME280;44411;49.994;8.660;2023-03-03T08:43:47;100710.84;;;1.58;75.79
58644;BME280;44411;49.994;8.660;2023-03-03T08:46:13;100712.56;;;1.52;75.87
58644;BME280;44411;49.994;8.660;2023-03-03T08:48:38;100712.09;;;1.62;75.52
58644;BME280;44411;49.994;8.660;2023-03-03T08:51:04;100705.88;;;1.62;74.52
58644;BME280;44411;49.994;8.660;2023-03-03T08:53:30;100706.75;;;1.56;75.87
58644;BME280;44411;49.994;8.660;2023-03-03T08:55:57;100697.59;;;1.63;74.51
58644;BME280;44411;49.994;8.660;2023-03-03T08:58:23;100713.22;;;1.80;74.94
58644;BME280;44411;49.994;8.660;2023-03-03T09:00:48;100702.59;;;1.91;75.06
58644;BME280;44411;49.994;8.660;2023-03-03T09:03:14;100715.34;;;2.03;74.03
58644;BME280;44411;49.994;8.660;2023-03-03T09:05:39;100712.63;;;2.03;73.84
58644;BME280;44411;49.994;8.660;2023-03-03T09:08:06;100723.19;;;2.29;73.25
58644;BME280;44411;49.994;8.660;2023-03-03T09:10:32;100713.50;;;2.22;72.88
58644;BME280;44411;49.994;8.660;2023-03-03T09:13:20;100708.03;;;2.35;72.56
58644;BME280;44411;49.994;8.660;2023-03-03T09:15:46;100710.22;;;2.45;72.03
58644;BME280;44411;49.994;8.660;2023-03-03T09:18:20;100718.28;;;2.45;72.73
58644;BME280;44411;49.994;8.660;2023-03-03T09:20:53;100715.47;;;2.58;71.95
58644;BME280;44411;49.994;8.660;2023-03-03T09:23:52;100712.47;;;2.48;71.97
58644;BME280;44411;49.994;8.660;2023-03-03T09:26:24;100720.97;;;2.45;72.25
58644;BME280;44411;49.994;8.660;2023-03-03T09:31:41;100730.97;;;2.13;73.58
58644;BME280;44411;49.994;8.660;2023-03-03T09:34:23;100738.19;;;2.44;73.43
58644;BME280;44411;49.994;8.660;2023-03-03T09:36:53;100726.22;;;2.58;72.50
58644;BME280;44411;49.994;8.660;2023-03-03T09:39:24;100728.72;;;1.84;73.47
58644;BME280;44411;49.994;8.660;2023-03-03T09:50:20;100739.16;;;2.93;71.51
58644;BME280;44411;49.994;8.660;2023-03-03T09:55:40;100735.94;;;3.03;70.39
58644;BME280;44411;49.994;8.660;2023-03-03T09:58:14;100729.28;;;3.24;70.00
58644;BME280;44411;49.994;8.660;2023-03-03T10:17:47;100741.69;;;3.85;67.73
58644;BME280;44411;49.994;8.660;2023-03-03T10:23:14;100745.53;;;4.08;65.96
58644;BME280;44411;49.994;8.660;2023-03-03T10:28:33;100750.31;;;3.34;68.01
58644;BME280;44411;49.994;8.660;2023-03-03T10:31:26;100746.50;;;3.83;67.24
58644;BME280;44411;49.994;8.660;2023-03-03T10:34:18;100751.69;;;4.39;66.28
58644;BME280;44411;49.994;8.660;2023-03-03T10:37:12;100756.47;;;4.25;64.66
58644;BME280;44411;49.994;8.660;2023-03-03T10:39:46;100760.34;;;4.17;65.60
58644;BME280;44411;49.994;8.660;2023-03-03T10:49:52;100768.97;;;3.96;65.31
58644;BME280;44411;49.994;8.660;2023-03-03T11:00:23;100765.19;;;4.98;61.62
58644;BME280;44411;49.994;8.660;2023-03-03T11:05:52;100768.19;;;5.37;60.51
58644;BME280;44411;49.994;8.660;2023-03-03T11:10:49;100757.00;;;5.74;60.34
58644;BME280;44411;49.994;8.660;2023-03-03T11:13:22;100760.47;;;5.86;60.06
58644;BME280;44411;49.994;8.660;2023-03-03T11:27:17;100750.22;;;6.68;58.20
58644;BME280;44411;49.994;8.660;2023-03-03T11:29:49;100750.78;;;6.19;57.73
58644;BME280;44411;49.994;8.660;2023-03-03T11:35:11;100752.41;;;5.74;58.73
58644;BME280;44411;49.994;8.660;2023-03-03T11:37:45;100742.06;;;5.31;58.90
58644;BME280;44411;49.994;8.660;2023-03-03T11:40:19;100749.47;;;6.22;59.71
58644;BME280;44411;49.994;8.660;2023-03-03T11:43:09;100746.94;;;6.66;56.48
58644;BME280;44411;49.994;8.660;2023-03-03T11:45:46;100731.91;;;7.19;55.29
58644;BME280;44411;49.994;8.660;2023-03-03T11:51:21;100727.78;;;6.95;55.76
58644;BME280;44411;49.994;8.660;2023-03-03T11:56:26;100711.16;;;7.08;54.84
58644;BME280;44411;49.994;8.660;2023-03-03T11:59:13;100708.50;;;7.35;55.08
58644;BME280;44411;49.994;8.660;2023-03-03T12:01:54;100705.25;;;7.65;53.87
58644;BME280;44411;49.994;8.660;2023-03-03T12:12:43;100690.94;;;7.70;52.75
58644;BME280;44411;49.994;8.660;2023-03-03T12:18:05;100686.69;;;7.52;53.42
58644;BME280;44411;49.994;8.660;2023-03-03T12:23:56;100684.56;;;7.59;52.09
58644;BME280;44411;49.994;8.660;2023-03-03T12:29:33;100675.91;;;7.90;52.86
58644;BME280;44411;49.994;8.660;2023-03-03T12:35:00;100666.19;;;7.99;51.43
58644;BME280;44411;49.994;8.660;2023-03-03T12:38:10;100671.09;;;8.39;50.00
58644;BME280;44411;49.994;8.660;2023-03-03T12:40:34;100664.31;;;8.37;50.35
58644;BME280;44411;49.994;8.660;2023-03-03T12:50:58;100654.66;;;8.19;50.70
58644;BME280;44411;49.994;8.660;2023-03-03T12:53:44;100649.41;;;8.97;47.99
58644;BME280;44411;49.994;8.660;2023-03-03T12:56:24;100653.34;;;8.69;48.25
58644;BME280;44411;49.994;8.660;2023-03-03T13:01:55;100646.06;;;8.80;47.03
58644;BME280;44411;49.994;8.660;2023-03-03T13:12:10;100636.69;;;9.13;48.15
58644;BME280;44411;49.994;8.660;2023-03-03T13:17:46;100638.41;;;9.96;46.08
58644;BME280;44411;49.994;8.660;2023-03-03T13:23:38;100631.88;;;9.97;45.77
58644;BME280;44411;49.994;8.660;2023-03-03T13:26:18;100640.31;;;9.91;46.57
58644;BME280;44411;49.994;8.660;2023-03-03T13:29:12;100641.66;;;8.69;48.04
58644;BME280;44411;49.994;8.660;2023-03-03T13:31:48;100621.25;;;9.65;46.11
58644;BME280;44411;49.994;8.660;2023-03-03T13:37:31;100627.22;;;10.34;44.07
58644;BME280;44411;49.994;8.660;2023-03-03T13:42:40;100624.75;;;10.37;44.69
58644;BME280;44411;49.994;8.660;2023-03-03T13:48:02;100621.22;;;9.86;44.52
58644;BME280;44411;49.994;8.660;2023-03-03T13:50:48;100617.13;;;10.14;44.19
58644;BME280;44411;49.994;8.660;2023-03-03T14:02:15;100610.78;;;10.60;44.05
58644;BME280;44411;49.994;8.660;2023-03-03T14:04:39;100611.56;;;10.70;43.36
58644;BME280;44411;49.994;8.660;2023-03-03T14:10:06;100594.94;;;11.17;41.12
58644;BME280;44411;49.994;8.660;2023-03-03T14:15:16;100597.44;;;10.53;42.37
58644;BME280;44411;49.994;8.660;2023-03-03T14:20:31;100598.09;;;10.89;42.54
58644;BME280;44411;49.994;8.660;2023-03-03T14:22:59;100595.22;;;10.55;41.72
58644;BME280;44411;49.994;8.660;2023-03-03T14:25:26;100608.50;;;10.82;41.54
58644;BME280;44411;49.994;8.660;2023-03-03T14:28:08;100602.13;;;10.22;42.39
58644;BME280;44411;49.994;8.660;2023-03-03T14:30:42;100604.53;;;10.54;41.34
58644;BME280;44411;49.994;8.660;2023-03-03T14:33:34;100599.59;;;10.61;42.15
58644;BME280;44411;49.994;8.660;2023-03-03T14:36:03;100600.16;;;10.53;41.47
58644;BME280;44411;49.994;8.660;2023-03-03T14:43:37;100595.06;;;10.10;41.63
58644;BME280;44411;49.994;8.660;2023-03-03T14:49:12;100586.88;;;10.10;41.56
58644;BME280;44411;49.994;8.660;2023-03-03T14:51:45;100585.47;;;10.28;42.39
58644;BME280;44411;49.994;8.660;2023-03-03T14:54:21;100590.41;;;10.06;41.51
58644;BME280;44411;49.994;8.660;2023-03-03T14:59:56;100584.66;;;10.38;41.73
58644;BME280;44411;49.994;8.660;2023-03-03T15:02:35;100576.13;;;10.60;40.98
58644;BME280;44411;49.994;8.660;2023-03-03T15:05:22;100581.94;;;10.38;41.58
58644;BME280;44411;49.994;8.660;2023-03-03T15:08:22;100578.31;;;10.58;42.46
58644;BME280;44411;49.994;8.660;2023-03-03T15:10:43;100580.47;;;10.66;41.86
58644;BME280;44411;49.994;8.660;2023-03-03T15:15:48;100585.41;;;10.64;41.33
58644;BME280;44411;49.994;8.660;2023-03-03T15:18:14;100588.16;;;10.54;42.08
58644;BME280;44411;49.994;8.660;2023-03-03T15:20:44;100584.31;;;10.55;41.10
58644;BME280;44411;49.994;8.660;2023-03-03T15:23:48;100584.38;;;11.05;42.17
58644;BME280;44411;49.994;8.660;2023-03-03T15:26:27;100583.97;;;11.27;40.79
58644;BME280;44411;49.994;8.660;2023-03-03T15:29:24;100583.34;;;10.95;41.35
58644;BME280;44411;49.994;8.660;2023-03-03T15:34:50;100582.72;;;10.49;42.55
58644;BME280;44411;49.994;8.660;2023-03-03T15:37:53;100584.97;;;10.11;42.35
58644;BME280;44411;49.994;8.660;2023-03-03T15:43:26;100584.72;;;9.51;43.74
58644;BME280;44411;49.994;8.660;2023-03-03T15:48:56;100579.53;;;9.49;44.10
58644;BME280;44411;49.994;8.660;2023-03-03T15:51:42;100586.38;;;9.88;44.46
58644;BME280;44411;49.994;8.660;2023-03-03T15:54:33;100586.91;;;9.74;43.09
58644;BME280;44411;49.994;8.660;2023-03-03T15:57:08;100588.25;;;9.82;43.04
58644;BME280;44411;49.994;8.660;2023-03-03T16:11:02;100586.34;;;9.98;44.30
58644;BME280;44411;49.994;8.660;2023-03-03T16:13:36;100586.34;;;9.93;43.20
58644;BME280;44411;49.994;8.660;2023-03-03T16:16:16;100592.91;;;9.82;43.37
58644;BME280;44411;49.994;8.660;2023-03-03T16:24:00;100589.56;;;9.13;43.63
58644;BME280;44411;49.994;8.660;2023-03-03T16:26:32;100592.53;;;8.96;44.24
58644;BME280;44411;49.994;8.660;2023-03-03T16:29:05;100593.41;;;8.49;43.77
58644;BME280;44411;49.994;8.660;2023-03-03T16:31:36;100588.63;;;8.66;43.19
58644;BME280;44411;49.994;8.660;2023-03-03T16:34:11;100595.94;;;8.18;45.08
58644;BME280;44411;49.994;8.660;2023-03-03T16:42:25;100600.09;;;7.56;48.03
58644;BME280;44411;49.994;8.660;2023-03-03T16:53:18;100601.50;;;6.60;50.65
58644;BME280;44411;49.994;8.660;2023-03-03T16:56:02;100610.00;;;6.46;49.70
58644;BME280;44411;49.994;8.660;2023-03-03T17:01:10;100616.31;;;5.96;51.91
58644;BME280;44411;49.994;8.660;2023-03-03T17:04:17;100623.28;;;5.75;53.11
58644;BME280;44411;49.994;8.660;2023-03-03T17:09:20;100629.44;;;5.42;53.50
58644;BME280;44411;49.994;8.660;2023-03-03T17:11:56;100632.59;;;5.22;54.60
58644;BME280;44411;49.994;8.660;2023-03-03T17:17:42;100637.38;;;5.03;54.86
58644;BME280;44411;49.994;8.660;2023-03-03T17:25:49;100647.69;;;4.65;55.90
58644;BME280;44411;49.994;8.660;2023-03-03T17:42:00;100664.06;;;4.35;59.34
58644;BME280;44411;49.994;8.660;2023-03-03T17:44:47;100670.28;;;4.35;59.07
58644;BME280;44411;49.994;8.660;2023-03-03T17:56:02;100684.63;;;4.24;59.27
58644;BME280;44411;49.994;8.660;2023-03-03T17:58:53;100686.25;;;4.13;59.42
58644;BME280;44411;49.994;8.660;2023-03-03T18:01:48;100699.75;;;4.13;59.78
58644;BME280;44411;49.994;8.660;2023-03-03T18:12:59;100709.81;;;3.94;60.54
58644;BME280;44411;49.994;8.660;2023-03-03T18:21:15;100709.53;;;3.72;60.79
58644;BME280;44411;49.994;8.660;2023-03-03T18:23:45;100714.31;;;3.70;61.64
58644;BME280;44411;49.994;8.660;2023-03-03T18:26:37;100717.09;;;3.63;61.15
58644;BME280;44411;49.994;8.660;2023-03-03T18:36:55;100718.47;;;3.24;61.36
58644;BME280;44411;49.994;8.660;2023-03-03T18:39:39;100725.53;;;3.06;63.08
58644;BME280;44411;49.994;8.660;2023-03-03T18:44:41;100724.47;;;2.89;64.08
58644;BME280;44411;49.994;8.660;2023-03-03T18:47:07;100724.47;;;2.89;64.22
58644;BME280;44411;49.994;8.660;2023-03-03T18:50:49;100726.78;;;2.85;64.24
58644;BME280;44411;49.994;8.660;2023-03-03T19:04:21;100741.69;;;2.88;64.44
58644;BME280;44411;49.994;8.660;2023-03-03T19:09:19;100751.13;;;2.79;64.88
58644;BME280;44411;49.994;8.660;2023-03-03T19:11:50;100747.28;;;2.68;64.39
58644;BME280;44411;49.994;8.660;2023-03-03T19:16:42;100761.41;;;2.63;64.54
58644;BME280;44411;49.994;8.660;2023-03-03T19:19:30;100763.56;;;2.55;65.44
58644;BME280;44411;49.994;8.660;2023-03-03T19:22:22;100766.97;;;2.43;66.22
58644;BME280;44411;49.994;8.660;2023-03-03T19:38:50;100775.75;;;2.07;67.78
58644;BME280;44411;49.994;8.660;2023-03-03T19:49:24;100768.59;;;1.94;68.61
58644;BME280;44411;49.994;8.660;2023-03-03T19:52:02;100767.88;;;1.80;69.31
58644;BME280;44411;49.994;8.660;2023-03-03T19:55:02;100767.00;;;1.86;68.85
58644;BME280;44411;49.994;8.660;2023-03-03T19:57:46;100765.59;;;1.77;69.17
58644;BME280;44411;49.994;8.660;2023-03-03T20:00:22;100778.19;;;1.83;68.57
58644;BME280;44411;49.994;8.660;2023-03-03T20:03:20;100768.19;;;1.90;68.81
58644;BME280;44411;49.994;8.660;2023-03-03T20:08:50;100780.88;;;1.83;68.64
58644;BME280;44411;49.994;8.660;2023-03-03T20:14:27;100777.56;;;1.81;69.17
58644;BME280;44411;49.994;8.660;2023-03-03T20:17:09;100782.31;;;1.86;69.42
58644;BME280;44411;49.994;8.660;2023-03-03T20:22:32;100779.66;;;1.79;69.02
58644;BME280;44411;49.994;8.660;2023-03-03T20:28:15;100787.81;;;1.66;69.52
58644;BME280;44411;49.994;8.660;2023-03-03T20:30:55;100786.13;;;1.65;69.19
58644;BME280;44411;49.994;8.660;2023-03-03T20:44:42;100799.75;;;1.25;69.55
58644;BME280;44411;49.994;8.660;2023-03-03T20:47:09;100803.66;;;1.29;70.99
58644;BME280;44411;49.994;8.660;2023-03-03T20:58:04;100807.88;;;0.98;71.73
58644;BME280;44411;49.994;8.660;2023-03-03T21:00:48;100805.22;;;0.91;72.66
58644;BME280;44411;49.994;8.660;2023-03-03T21:03:26;100807.28;;;0.89;72.77
58644;BME280;44411;49.994;8.660;2023-03-03T21:11:05;100817.84;;;0.64;73.32
58644;BME280;44411;49.994;8.660;2023-03-03T21:13:38;100811.22;;;0.67;73.12
58644;BME280;44411;49.994;8.660;2023-03-03T21:18:34;100812.03;;;0.67;73.33
58644;BME280;44411;49.994;8.660;2023-03-03T21:21:00;100822.78;;;0.67;73.56
58644;BME280;44411;49.994;8.660;2023-03-03T21:23:25;100808.56;;;0.60;73.89
58644;BME280;44411;49.994;8.660;2023-03-03T21:25:53;100812.88;;;0.54;73.76
58644;BME280;44411;49.994;8.660;2023-03-03T21:28:26;100812.03;;;0.67;73.56
58644;BME280;44411;49.994;8.660;2023-03-03T21:33:43;100813.50;;;0.76;73.91
58644;BME280;44411;49.994;8.660;2023-03-03T21:36:10;100807.91;;;0.65;73.94
58644;BME280;44411;49.994;8.660;2023-03-03T21:38:37;100815.38;;;0.69;73.71
58644;BME280;44411;49.994;8.660;2023-03-03T21:41:04;100813.09;;;0.60;74.60
58644;BME280;44411;49.994;8.660;2023-03-03T21:43:38;100818.66;;;0.58;74.18
58644;BME280;44411;49.994;8.660;2023-03-03T21:46:04;100815.56;;;0.48;74.48
58644;BME280;44411;49.994;8.660;2023-03-03T21:48:30;100811.44;;;0.52;75.01
58644;BME280;44411;49.994;8.660;2023-03-03T21:50:55;100813.72;;;0.55;75.07
58644;BME280;44411;49.994;8.660;2023-03-03T21:53:21;100814.13;;;0.52;75.11
58644;BME280;44411;49.994;8.660;2023-03-03T21:55:48;100814.75;;;0.41;75.12
58644;BME280;44411;49.994;8.660;2023-03-03T21:58:15;100821.16;;;0.46;75.06
58644;BME280;44411;49.994;8.660;2023-03-03T22:00:40;100817.63;;;0.39;75.08
58644;BME280;44411;49.994;8.660;2023-03-03T22:03:08;100817.22;;;0.35;75.13
58644;BME280;44411;49.994;8.660;2023-03-03T22:05:34;100825.03;;;0.30;75.43
58644;BME280;44411;49.994;8.660;2023-03-03T22:07:59;100820.72;;;0.29;75.77
58644;BME280;44411;49.994;8.660;2023-03-03T22:10:24;100828.97;;;0.28;75.82
58644;BME280;44411;49.994;8.660;2023-03-03T22:12:50;100828.78;;;0.29;75.94
58644;BME280;44411;49.994;8.660;2023-03-03T22:15:15;100830.41;;;0.24;75.96
58644;BME280;44411;49.994;8.660;2023-03-03T22:17:41;100833.06;;;0.24;76.67
58644;BME280;44411;49.994;8.660;2023-03-03T22:20:08;100834.97;;;0.16;76.15
58644;BME280;44411;49.994;8.660;2023-03-03T22:22:34;100835.56;;;0.12;75.75
58644;BME280;44411;49.994;8.660;2023-03-03T22:24:59;100836.56;;;0.04;76.22
58644;BME280;44411;49.994;8.660;2023-03-03T22:27:24;100843.75;;;-0.10;76.40
58644;BME280;44411;49.994;8.660;2023-03-03T22:29:50;100841.88;;;-0.09;76.56
58644;BME280;44411;49.994;8.660;2023-03-03T22:32:15;100844.56;;;-0.16;76.78
58644;BME280;44411;49.994;8.660;2023-03-03T22:34:41;100848.25;;;-0.24;77.51
58644;BME280;44411;49.994;8.660;2023-03-03T22:37:06;100836.69;;;-0.31;77.58
58644;BME280;44411;49.994;8.660;2023-03-03T22:39:31;100841.81;;;-0.29;77.73
58644;BME280;44411;49.994;8.660;2023-03-03T22:41:57;100835.41;;;-0.35;77.94
58644;BME280;44411;49.994;8.660;2023-03-03T22:44:22;100839.31;;;-0.37;78.21
58644;BME280;44411;49.994;8.660;2023-03-03T22:46:47;100843.44;;;-0.35;78.32
58644;BME280;44411;49.994;8.660;2023-03-03T22:49:13;100842.47;;;-0.27;78.36